Time;durP1;ratioP1;P1;durP2;ratioP2;P2;SDS_P1;SDS_P2;PMS_P1;PMS_P2;Temp;Humidity;BMP_temperature;BMP_pressure;BME280_temperature;BME280_humidity;BME280_pressure;Samples;Min_cycle;Max_cycle;Signal;HPM_P1;HPM_P2
2021/03/12 00:00:26;;;;;;;22.35;11.80;;;103.30;1792.00;;;;;;5077393;28;20016;-83
2021/03/12 00:02:52;;;;;;;20.35;9.68;;;103.30;1766.40;;;;;;5074353;28;20040;-83
2021/03/12 00:05:18;;;;;;;;;;;103.30;1792.00;;;;;;5077660;28;20028;-83
2021/03/12 00:07:44;;;;;;;25.38;11.05;;;103.30;1792.00;;;;;;5077437;28;19908;-83
2021/03/12 00:10:16;;;;;;;20.13;10.77;;;103.30;1792.00;;;;;;5076863;28;20586;-83
2021/03/12 00:12:42;;;;;;;19.08;11.10;;;103.30;1766.40;;;;;;5094829;28;20036;-83
2021/03/12 00:15:11;;;;;;;17.98;11.00;;;103.30;1792.00;;;;;;5076372;28;20022;-80
2021/03/12 00:17:37;;;;;;;21.02;11.25;;;103.30;1766.40;;;;;;5076273;28;20032;-81
2021/03/12 00:20:10;;;;;;;18.15;10.27;;;103.30;1792.00;;;;;;5093435;28;20020;-79
2021/03/12 00:22:36;;;;;;;21.88;11.70;;;103.30;1766.40;;;;;;5064346;28;20035;-83
2021/03/12 00:25:04;;;;;;;17.10;10.57;;;103.30;1766.40;;;;;;5070395;28;20077;-79
2021/03/12 00:27:31;;;;;;;17.02;9.95;;;103.30;1792.00;;;;;;5067392;28;20020;-80
2021/03/12 00:29:57;;;;;;;17.27;10.48;;;103.20;1766.40;;;;;;5075146;28;20038;-82
2021/03/12 00:32:22;;;;;;;15.20;8.18;;;103.20;1792.00;;;;;;5073539;28;20036;-81
2021/03/12 00:34:48;;;;;;;;;;;103.30;1792.00;;;;;;5067526;28;20066;-81
2021/03/12 00:37:14;;;;;;;18.02;8.93;;;103.30;1766.40;;;;;;5074880;28;20378;-81
2021/03/12 00:39:39;;;;;;;;;;;103.20;1792.00;;;;;;5093436;28;20107;-80
2021/03/12 00:42:07;;;;;;;16.85;9.88;;;103.20;1792.00;;;;;;5070199;28;19912;-83
2021/03/12 00:44:33;;;;;;;18.15;8.73;;;103.20;1792.00;;;;;;5069527;28;20027;-81
2021/03/12 00:46:59;;;;;;;;;;;103.20;1792.00;;;;;;5074740;28;20376;-81
2021/03/12 00:49:25;;;;;;;17.50;7.85;;;103.20;1792.00;;;;;;5074721;28;19911;-82
2021/03/12 00:51:51;;;;;;;17.33;10.68;;;103.30;1792.00;;;;;;5069655;28;20038;-81
2021/03/12 00:54:17;;;;;;;14.80;8.50;;;103.30;1792.00;;;;;;5074607;28;20115;-79
2021/03/12 00:56:42;;;;;;;;;;;103.00;1792.00;;;;;;5074447;28;20024;-79
2021/03/12 00:59:08;;;;;;;12.98;6.97;;;103.20;1792.00;;;;;;5074798;28;19919;-82
2021/03/12 01:01:34;;;;;;;;;;;103.10;1792.00;;;;;;5074339;28;20089;-82
2021/03/12 01:04:00;;;;;;;14.38;8.57;;;103.10;1792.00;;;;;;5074539;28;19908;-80
2021/03/12 01:06:25;;;;;;;;;;;103.10;1792.00;;;;;;5093834;28;20024;-82
2021/03/12 01:08:51;;;;;;;13.85;7.95;;;103.10;1792.00;;;;;;5069557;28;19970;-82
2021/03/12 01:11:17;;;;;;;15.68;8.82;;;103.10;1792.00;;;;;;5068923;28;20055;-80
2021/03/12 01:13:43;;;;;;;;;;;103.10;1792.00;;;;;;5082804;28;20024;-81
2021/03/12 01:16:12;;;;;;;15.27;8.23;;;103.10;1792.00;;;;;;5073422;28;20018;-79
2021/03/12 01:18:38;;;;;;;21.98;10.88;;;103.10;1792.00;;;;;;5069399;28;20036;-81
2021/03/12 01:21:04;;;;;;;;;;;103.10;1792.00;;;;;;5067283;28;20036;-82
2021/03/12 01:23:30;;;;;;;21.15;10.55;;;103.10;1792.00;;;;;;5093915;28;19972;-82
2021/03/12 01:25:55;;;;;;;;;;;103.10;1792.00;;;;;;5094343;28;20035;-80
2021/03/12 01:28:21;;;;;;;17.85;9.52;;;103.10;1792.00;;;;;;5075707;28;19912;-80
2021/03/12 01:30:49;;;;;;;12.82;7.30;;;103.10;1792.00;;;;;;5075618;28;20024;-82
2021/03/12 01:33:15;;;;;;;15.00;7.63;;;103.10;1792.00;;;;;;5075500;28;20036;-80
2021/03/12 01:35:41;;;;;;;14.95;8.55;;;103.10;1792.00;;;;;;5093746;28;20020;-80
2021/03/12 01:38:08;;;;;;;10.77;6.13;;;103.10;1817.60;;;;;;5076275;28;20031;-80
2021/03/12 01:40:42;;;;;;;17.90;8.07;;;103.10;1792.00;;;;;;5075340;28;20077;-82
2021/03/12 01:43:08;;;;;;;16.33;7.97;;;103.00;1817.60;;;;;;5075739;28;20034;-80
2021/03/12 01:45:37;;;;;;;;;;;103.10;1792.00;;;;;;5097184;28;20020;-80
2021/03/12 01:48:06;;;;;;;21.83;9.25;;;103.10;1792.00;;;;;;5079068;28;19904;-79
2021/03/12 01:50:32;;;;;;;17.60;8.70;;;103.10;1792.00;;;;;;5078916;28;20028;-82
2021/03/12 01:52:58;;;;;;;14.07;7.30;;;103.10;1792.00;;;;;;5097575;28;20040;-82
2021/03/12 01:55:31;;;;;;;;;;;103.10;1817.60;;;;;;5080470;28;20024;-80
2021/03/12 01:57:58;;;;;;;16.55;8.63;;;103.10;1817.60;;;;;;5097000;28;19911;-79
2021/03/12 02:00:24;;;;;;;14.75;7.70;;;103.20;1792.00;;;;;;5078654;28;20036;-83
2021/03/12 02:02:50;;;;;;;;;;;103.10;1792.00;;;;;;5078994;28;20064;-80
2021/03/12 02:05:16;;;;;;;18.30;10.15;;;103.20;1792.00;;;;;;5079127;28;19912;-79
2021/03/12 02:07:42;;;;;;;;;;;103.20;1792.00;;;;;;5079538;28;20165;-79
2021/03/12 02:10:12;;;;;;;18.38;9.63;;;103.20;1792.00;;;;;;5078360;28;19911;-82
2021/03/12 02:13:06;;;;;;;21.58;9.35;;;103.20;1792.00;;;;;;5078393;28;20020;-82
2021/03/12 02:15:55;;;;;;;18.85;10.15;;;103.30;1817.60;;;;;;5075938;28;20016;-80
2021/03/12 02:18:23;;;;;;;17.92;10.02;;;103.30;1792.00;;;;;;5028014;28;20036;-82
2021/03/12 02:20:48;;;;;;;17.08;9.60;;;103.30;1792.00;;;;;;5032195;28;20069;-83
2021/03/12 02:23:23;;;;;;;14.50;9.30;;;103.30;1792.00;;;;;;5018688;28;20068;-80
2021/03/12 02:25:58;;;;;;;19.60;10.32;;;128.00;1792.00;;;;;;5018173;28;20238;-83
2021/03/12 02:28:26;;;;;;;18.08;9.23;;;103.30;1792.00;;;;;;5017475;28;20421;-82
2021/03/12 02:30:52;;;;;;;16.77;8.73;;;103.30;1766.40;;;;;;5018140;28;20045;-83
2021/03/12 02:33:20;;;;;;;16.48;9.73;;;103.30;1792.00;;;;;;5017997;28;20048;-83
2021/03/12 02:35:47;;;;;;;14.57;9.05;;;103.30;1766.40;;;;;;5034231;28;20045;-82
2021/03/12 02:38:13;;;;;;;13.43;8.90;;;103.30;1792.00;;;;;;5032539;28;20033;-82
2021/03/12 02:40:39;;;;;;;19.45;9.93;;;103.30;1766.40;;;;;;5054927;28;20037;-80
2021/03/12 02:43:06;;;;;;;18.38;9.43;;;103.30;1792.00;;;;;;5055243;28;20045;-84
2021/03/12 02:45:32;;;;;;;14.40;8.75;;;103.30;1766.40;;;;;;5054955;28;20037;-79
2021/03/12 02:47:57;;;;;;;15.30;9.80;;;103.30;1792.00;;;;;;5055273;28;20078;-82
2021/03/12 02:50:23;;;;;;;;;;;103.20;1792.00;;;;;;5055684;28;20025;-80
2021/03/12 02:52:49;;;;;;;17.42;9.70;;;103.30;1792.00;;;;;;5055049;28;19931;-81
2021/03/12 02:55:16;;;;;;;;;;;103.20;1792.00;;;;;;5081816;28;20067;-81
2021/03/12 02:57:42;;;;;;;18.05;10.00;;;103.20;1817.60;;;;;;5098919;28;19907;-82
2021/03/12 03:00:08;;;;;;;;;;;103.20;1792.00;;;;;;5099180;28;20024;-83
2021/03/12 03:02:34;;;;;;;18.63;9.00;;;103.20;1792.00;;;;;;5098661;28;20362;-82
2021/03/12 03:05:01;;;;;;;15.32;9.68;;;103.20;1817.60;;;;;;5098686;28;20020;-82
2021/03/12 03:07:27;;;;;;;17.02;9.73;;;103.10;1817.60;;;;;;5098659;28;20031;-80
2021/03/12 03:09:54;;;;;;;18.15;9.77;;;103.20;1817.60;;;;;;5116951;28;20059;-80
2021/03/12 03:12:24;;;;;;;15.95;9.07;;;103.20;1817.60;;;;;;5098330;28;20517;-82
2021/03/12 03:15:00;;;;;;;20.10;10.70;;;103.20;1817.60;;;;;;5098202;28;20016;-83
2021/03/12 03:17:28;;;;;;;17.98;10.10;;;103.10;1817.60;;;;;;5098467;28;20027;-81
2021/03/12 03:19:55;;;;;;;15.05;8.15;;;103.10;1817.60;;;;;;5098189;28;20026;-83
2021/03/12 03:22:21;;;;;;;15.05;8.55;;;103.20;1792.00;;;;;;5097208;28;20494;-81
2021/03/12 03:24:47;;;;;;;17.08;9.93;;;103.20;1817.60;;;;;;5081799;28;20027;-80
2021/03/12 03:27:14;;;;;;;20.45;10.65;;;103.20;1792.00;;;;;;5076731;28;20024;-79
2021/03/12 03:29:42;;;;;;;16.15;9.85;;;103.20;1817.60;;;;;;5094608;28;20024;-83
2021/03/12 03:32:14;;;;;;;17.40;9.30;;;103.10;1817.60;;;;;;5094669;28;20024;-82
2021/03/12 03:34:42;;;;;;;16.40;9.32;;;103.20;1817.60;;;;;;5075169;28;20024;-79
2021/03/12 03:37:08;;;;;;;18.05;10.18;;;103.10;1817.60;;;;;;5067537;28;20020;-80
2021/03/12 03:39:34;;;;;;;17.95;9.68;;;103.10;1792.00;;;;;;5064003;28;20031;-79
2021/03/12 03:42:02;;;;;;;19.60;10.32;;;103.10;1817.60;;;;;;5066453;28;20040;-84
2021/03/12 03:44:30;;;;;;;19.73;10.60;;;103.10;1817.60;;;;;;5068036;28;20471;-79
2021/03/12 03:46:59;;;;;;;17.60;9.30;;;103.20;1843.20;;;;;;5067535;28;20099;-81
2021/03/12 03:49:26;;;;;;;15.73;7.18;;;103.10;1843.20;;;;;;5075920;28;20052;-83
2021/03/12 03:51:53;;;;;;;17.45;10.73;;;103.00;1868.80;;;;;;5065183;28;20123;-79
2021/03/12 03:54:21;;;;;;;17.30;7.35;;;102.80;1868.80;;;;;;5067329;28;20020;-79
2021/03/12 03:56:48;;;;;;;16.80;10.35;;;103.00;1868.80;;;;;;5067561;28;20070;-78
2021/03/12 03:59:15;;;;;;;15.88;8.98;;;103.00;1868.80;;;;;;5075982;28;20036;-79
2021/03/12 04:01:42;;;;;;;22.92;9.90;;;103.00;1868.80;;;;;;5076722;28;20036;-82
2021/03/12 04:04:09;;;;;;;23.08;9.93;;;103.00;1868.80;;;;;;5077023;28;20112;-80
2021/03/12 04:06:36;;;;;;;19.38;9.77;;;103.00;1843.20;;;;;;5076964;28;20109;-79
2021/03/12 04:09:04;;;;;;;18.48;9.73;;;103.00;1843.20;;;;;;5075943;28;20024;-80
2021/03/12 04:11:32;;;;;;;17.38;9.65;;;103.00;1843.20;;;;;;5077066;28;20031;-81
2021/03/12 04:13:59;;;;;;;18.42;10.07;;;103.10;1843.20;;;;;;5077193;28;20031;-82
2021/03/12 04:16:26;;;;;;;18.42;11.05;;;103.10;1843.20;;;;;;5094898;28;20078;-80
2021/03/12 04:18:53;;;;;;;14.75;7.88;;;103.20;1817.60;;;;;;5060022;28;20036;-81
2021/03/12 04:21:20;;;;;;;16.15;9.55;;;103.10;1817.60;;;;;;5075674;28;20063;-81
2021/03/12 04:23:46;;;;;;;16.48;10.75;;;103.20;1817.60;;;;;;5076565;28;20028;-81
2021/03/12 04:26:12;;;;;;;21.40;11.38;;;103.20;1817.60;;;;;;5076614;28;20119;-80
2021/03/12 04:28:39;;;;;;;17.00;10.00;;;103.20;1817.60;;;;;;5076043;28;20029;-80
2021/03/12 04:31:06;;;;;;;18.92;10.55;;;103.20;1843.20;;;;;;5076317;28;20028;-80
2021/03/12 04:33:32;;;;;;;18.15;10.98;;;103.10;1920.00;;;;;;5075952;28;20122;-79
2021/03/12 04:35:58;;;;;;;;;;;103.10;1945.60;;;;;;5076554;28;20067;-81
2021/03/12 04:38:26;;;;;;;16.42;9.13;;;103.10;1971.20;;;;;;5076172;28;19904;-80
2021/03/12 04:40:52;;;;;;;17.38;10.32;;;103.00;1971.20;;;;;;5076553;28;20066;-80
2021/03/12 04:43:18;;;;;;;;;;;103.00;1971.20;;;;;;5094670;28;20024;-80
2021/03/12 04:45:44;;;;;;;18.05;9.65;;;102.80;1996.80;;;;;;5076142;28;19915;-82
2021/03/12 04:48:10;;;;;;;;;;;103.00;1996.80;;;;;;5077171;28;20107;-82
2021/03/12 04:50:37;;;;;;;16.70;10.23;;;103.00;2048.00;;;;;;5076381;28;19940;-80
2021/03/12 04:53:04;;;;;;;19.38;10.82;;;103.00;1996.80;;;;;;5076276;28;20558;-81
2021/03/12 04:55:30;;;;;;;18.45;10.15;;;103.00;1996.80;;;;;;5075077;28;20093;-80
2021/03/12 04:57:56;;;;;;;;;;;103.00;1996.80;;;;;;5076113;28;20479;-80
2021/03/12 05:00:22;;;;;;;17.30;10.40;;;103.00;1996.80;;;;;;5075844;28;19994;-80
2021/03/12 05:02:49;;;;;;;18.52;10.00;;;103.00;1971.20;;;;;;5074861;28;20044;-83
2021/03/12 05:05:15;;;;;;;17.52;10.77;;;103.00;1971.20;;;;;;5093849;28;20035;-81
2021/03/12 05:07:43;;;;;;;17.10;9.57;;;103.00;1971.20;;;;;;5076217;28;20115;-82
2021/03/12 05:10:09;;;;;;;18.75;11.13;;;103.00;1971.20;;;;;;5076002;28;20054;-81
2021/03/12 05:12:35;;;;;;;21.90;11.57;;;103.10;1971.20;;;;;;5075939;28;20039;-81
2021/03/12 05:15:01;;;;;;;24.10;12.07;;;103.20;1945.60;;;;;;5075816;28;20020;-80
2021/03/12 05:17:27;;;;;;;;;;;103.20;1945.60;;;;;;5093013;28;20023;-80
2021/03/12 05:19:52;;;;;;;21.33;12.10;;;103.20;1945.60;;;;;;5075487;28;19904;-80
2021/03/12 05:22:18;;;;;;;;;;;103.30;1920.00;;;;;;5076227;28;20117;-81
2021/03/12 05:24:44;;;;;;;21.35;11.02;;;103.10;1971.20;;;;;;5075875;28;20046;-83
2021/03/12 05:27:10;;;;;;;;;;;103.20;1945.60;;;;;;5076097;28;20024;-80
2021/03/12 05:29:36;;;;;;;20.63;10.45;;;103.10;1971.20;;;;;;5075504;28;19912;-80
2021/03/12 05:32:02;;;;;;;17.90;10.65;;;103.00;1996.80;;;;;;5074817;28;20036;-81
2021/03/12 05:34:28;;;;;;;18.63;10.70;;;103.00;1971.20;;;;;;5076085;28;20028;-81
2021/03/12 05:36:54;;;;;;;14.80;9.45;;;103.10;1971.20;;;;;;5076173;28;20025;-82
2021/03/12 05:39:20;;;;;;;;;;;103.00;1945.60;;;;;;5076604;28;20028;-82
2021/03/12 05:41:47;;;;;;;21.10;9.90;;;103.00;1971.20;;;;;;5075567;28;19919;-82
2021/03/12 05:44:13;;;;;;;16.30;10.73;;;103.00;1971.20;;;;;;5076117;28;20047;-81
2021/03/12 05:46:39;;;;;;;19.10;11.35;;;103.20;1971.20;;;;;;5075874;28;20119;-80
2021/03/12 05:49:05;;;;;;;18.13;11.38;;;103.20;1971.20;;;;;;5093841;28;20051;-81
2021/03/12 05:51:34;;;;;;;22.92;11.93;;;103.10;1971.20;;;;;;5075228;28;20063;-82
2021/03/12 05:54:05;;;;;;;20.20;11.85;;;103.30;1945.60;;;;;;5075782;28;20024;-81
2021/03/12 05:56:34;;;;;;;20.65;11.10;;;103.30;1971.20;;;;;;5075564;28;20028;-81
2021/03/12 05:59:01;;;;;;;18.45;11.75;;;103.20;1996.80;;;;;;5075628;28;20570;-81
2021/03/12 06:01:27;;;;;;;21.02;11.77;;;103.10;2022.40;;;;;;5093434;28;20025;-81
2021/03/12 06:03:53;;;;;;;23.40;11.95;;;103.10;2022.40;;;;;;5075693;28;20020;-81
2021/03/12 06:06:18;;;;;;;;;;;103.20;1996.80;;;;;;5075499;28;20491;-81
2021/03/12 06:08:44;;;;;;;21.58;10.95;;;103.20;1996.80;;;;;;5075807;28;20410;-80
2021/03/12 06:11:10;;;;;;;;;;;103.30;1971.20;;;;;;5075466;28;20036;-78
2021/03/12 06:13:56;;;;;;;19.40;11.07;;;103.30;1971.20;;;;;;5075641;28;19939;-81
2021/03/12 06:16:26;;;;;;;26.88;15.07;;;103.30;1996.80;;;;;;5075513;28;20081;-80
2021/03/12 06:19:16;;;;;;;19.90;11.80;;;128.20;2022.40;;;;;;5075617;28;20028;-80
2021/03/12 06:21:43;;;;;;;19.92;10.93;;;128.40;1971.20;;;;;;5074553;28;20399;-79
2021/03/12 06:24:21;;;;;;;21.42;12.20;;;128.60;1945.60;;;;;;5071738;28;20438;-82
2021/03/12 06:26:47;;;;;;;19.15;11.98;;;128.80;1894.40;;;;;;5055275;28;20480;-82
2021/03/12 06:29:13;;;;;;;25.05;13.60;;;128.80;1920.00;;;;;;5055425;28;20063;-79
2021/03/12 06:31:38;;;;;;;;;;;128.70;1920.00;;;;;;5056953;28;20254;-81
2021/03/12 06:34:09;;;;;;;26.25;14.63;;;128.80;1894.40;;;;;;5074833;28;19994;-81
2021/03/12 06:36:35;;;;;;;27.80;14.20;;;128.70;1920.00;;;;;;5096468;28;20502;-83
2021/03/12 06:39:00;;;;;;;28.10;15.70;;;128.70;1920.00;;;;;;5079175;28;20020;-82
2021/03/12 06:41:39;;;;;;;;;;;128.80;1920.00;;;;;;5079307;28;20076;-83
2021/03/12 06:44:31;;;;;;;31.08;15.80;;;153.60;1894.40;;;;;;5079084;28;19949;-90
2021/03/12 06:47:00;;;;;;;27.92;15.77;;;153.70;1868.80;;;;;;5096919;28;20028;-81
2021/03/12 06:49:26;;;;;;;33.15;15.55;;;153.90;1843.20;;;;;;5078579;28;20028;-89
2021/03/12 06:51:56;;;;;;;26.58;14.88;;;154.10;1843.20;;;;;;5077480;28;20032;-84
2021/03/12 06:54:22;;;;;;;28.48;15.43;;;154.10;1817.60;;;;;;5078086;28;20032;-79
2021/03/12 06:56:48;;;;;;;25.02;13.00;;;154.20;1817.60;;;;;;5069418;28;20021;-80
2021/03/12 06:59:15;;;;;;;20.73;11.48;;;154.10;1817.60;;;;;;5078259;28;20031;-80
2021/03/12 07:01:40;;;;;;;23.48;13.23;;;153.90;1868.80;;;;;;5077261;28;20044;-78
2021/03/12 07:04:11;;;;;;;23.00;13.48;;;128.90;1945.60;;;;;;5077521;28;20034;-83
2021/03/12 07:06:44;;;;;;;28.83;13.68;;;128.90;1996.80;;;;;;5072213;28;20032;-81
2021/03/12 07:09:10;;;;;;;24.13;14.18;;;128.70;2022.40;;;;;;5077738;28;20475;-82
2021/03/12 07:11:37;;;;;;;27.52;14.40;;;128.70;2022.40;;;;;;5077657;28;20024;-82
2021/03/12 07:14:03;;;;;;;23.98;13.82;;;128.90;1971.20;;;;;;5076398;28;20020;-85
2021/03/12 07:16:29;;;;;;;25.38;14.43;;;153.70;1945.60;;;;;;5077371;28;20024;-79
2021/03/12 07:18:55;;;;;;;24.95;14.85;;;153.90;1945.60;;;;;;5074443;28;20019;-81
2021/03/12 07:21:23;;;;;;;29.88;18.73;;;153.60;1996.80;;;;;;5077144;28;20174;-82
2021/03/12 07:24:00;;;;;;;26.15;16.58;;;153.70;2022.40;;;;;;5057664;28;20048;-79
2021/03/12 07:26:40;;;;;;;36.90;21.02;;;153.90;1971.20;;;;;;5060254;28;20101;-82
2021/03/12 07:29:06;;;;;;;41.35;19.13;;;153.70;1945.60;;;;;;5076822;28;20024;-86
2021/03/12 07:31:36;;;;;;;43.83;21.42;;;153.70;1971.20;;;;;;5077043;28;20073;-87
2021/03/12 07:34:10;;;;;;;33.33;17.65;;;153.70;1996.80;;;;;;5095980;28;20131;-79
2021/03/12 07:36:45;;;;;;;30.08;18.45;;;153.90;1971.20;;;;;;5095404;28;20520;-79
2021/03/12 07:39:15;;;;;;;33.15;17.45;;;154.10;1971.20;;;;;;5076912;28;20020;-79
2021/03/12 07:41:42;;;;;;;39.95;19.48;;;154.00;1996.80;;;;;;5076700;28;20124;-79
2021/03/12 07:44:15;;;;;;;33.78;17.05;;;154.00;1996.80;;;;;;5094537;28;20040;-79
2021/03/12 07:46:44;;;;;;;26.35;15.13;;;154.00;1996.80;;;;;;5095198;28;20114;-80
2021/03/12 07:49:28;;;;;;;30.10;16.30;;;154.00;1996.80;;;;;;5077243;28;20035;-81
2021/03/12 07:51:54;;;;;;;25.73;13.95;;;154.10;2022.40;;;;;;5076681;28;20036;-79
2021/03/12 07:54:40;;;;;;;;;;;154.30;1971.20;;;;;;5077509;28;20058;-80
2021/03/12 07:57:08;;;;;;;29.52;16.50;;;154.30;1996.80;;;;;;5070214;28;19926;-82
2021/03/12 07:59:46;;;;;;;39.63;18.98;;;154.40;2022.40;;;;;;5077237;28;20132;-80
2021/03/12 08:02:16;;;;;;;27.10;14.60;;;154.50;1971.20;;;;;;5076505;28;20044;-84
2021/03/12 08:04:43;;;;;;;26.30;14.15;;;154.40;1971.20;;;;;;5072462;28;20048;-81
2021/03/12 08:07:29;;;;;;;26.63;15.35;;;154.50;1971.20;;;;;;5075606;28;20030;-82
2021/03/12 08:09:56;;;;;;;24.27;14.20;;;154.50;1971.20;;;;;;5069810;28;20028;-82
2021/03/12 08:12:39;;;;;;;27.17;16.88;;;179.20;1971.20;;;;;;5073513;28;20392;-82
2021/03/12 08:15:16;;;;;;;25.02;15.57;;;179.40;1945.60;;;;;;5089973;28;20012;-81
2021/03/12 08:17:56;;;;;;;24.70;15.20;;;179.40;1971.20;;;;;;5076477;28;20428;-84
2021/03/12 08:20:26;;;;;;;23.80;13.50;;;179.40;1971.20;;;;;;5076930;28;20468;-81
2021/03/12 08:22:56;;;;;;;28.77;15.25;;;179.40;1971.20;;;;;;5094778;28;20373;-81
2021/03/12 08:25:48;;;;;;;19.45;12.20;;;179.50;1971.20;;;;;;5094500;28;20038;-79
2021/03/12 08:28:13;;;;;;;21.38;12.48;;;179.50;1945.60;;;;;;5076510;28;20027;-81
2021/03/12 08:30:39;;;;;;;19.25;11.45;;;179.60;1945.60;;;;;;5075411;28;20024;-83
2021/03/12 08:33:08;;;;;;;;;;;179.70;1894.40;;;;;;5094310;28;20028;-82
2021/03/12 08:35:38;;;;;;;19.10;11.18;;;179.90;1868.80;;;;;;5075776;28;20359;-81
2021/03/12 08:38:25;;;;;;;25.50;13.55;;;180.10;1894.40;;;;;;5076658;28;20054;-82
2021/03/12 08:40:54;;;;;;;;;;;204.90;1817.60;;;;;;5075702;28;20463;-81
2021/03/12 08:43:21;;;;;;;32.65;12.60;;;205.00;1843.20;;;;;;5070765;28;19912;-85
2021/03/12 08:45:50;;;;;;;19.23;11.60;;;205.10;1843.20;;;;;;5093688;28;20027;-81
2021/03/12 08:48:17;;;;;;;22.55;13.75;;;205.20;1792.00;;;;;;5094215;28;20093;-82
2021/03/12 08:51:02;;;;;;;25.55;13.32;;;205.20;1817.60;;;;;;5075865;28;20085;-81
2021/03/12 08:53:30;;;;;;;24.05;14.00;;;205.30;1792.00;;;;;;5075443;28;20056;-83
2021/03/12 08:55:58;;;;;;;24.45;12.80;;;205.40;1766.40;;;;;;5076598;28;20157;-82
2021/03/12 08:58:25;;;;;;;21.33;13.43;;;205.70;1689.60;;;;;;5075917;28;20017;-82
2021/03/12 09:00:56;;;;;;;23.27;13.13;;;230.40;1689.60;;;;;;5076092;28;20028;-81
2021/03/12 09:03:27;;;;;;;22.50;14.23;;;230.40;1689.60;;;;;;5075290;28;20046;-83
2021/03/12 09:06:00;;;;;;;24.20;13.15;;;230.50;1689.60;;;;;;5075847;28;20036;-83
2021/03/12 09:08:27;;;;;;;27.27;12.38;;;230.60;1664.00;;;;;;5075596;28;20063;-81
2021/03/12 09:10:55;;;;;;;19.52;11.23;;;230.80;1664.00;;;;;;5076018;28;20020;-79
2021/03/12 09:13:21;;;;;;;20.23;12.02;;;230.80;1638.40;;;;;;5074898;28;20089;-81
2021/03/12 09:15:49;;;;;;;18.15;11.23;;;230.90;1638.40;;;;;;5075320;28;20028;-83
2021/03/12 09:18:25;;;;;;;19.08;11.27;;;230.90;1638.40;;;;;;5075711;28;20382;-81
2021/03/12 09:20:53;;;;;;;19.70;12.00;;;231.10;1587.20;;;;;;5075026;28;20127;-81
2021/03/12 09:23:32;;;;;;;17.70;10.48;;;231.00;1638.40;;;;;;5093458;28;20020;-82
2021/03/12 09:25:58;;;;;;;23.27;12.48;;;231.10;1638.40;;;;;;5090700;28;20103;-81
2021/03/12 09:28:27;;;;;;;;;;;231.30;1587.20;;;;;;5075054;28;20055;-81
2021/03/12 09:30:53;;;;;;;21.35;11.10;;;231.30;1638.40;;;;;;5086459;28;19905;-84
2021/03/12 09:33:32;;;;;;;;;;;256.10;1561.60;;;;;;5075375;28;20529;-81
2021/03/12 09:35:59;;;;;;;22.58;11.43;;;256.30;1561.60;;;;;;5071140;28;19908;-87
2021/03/12 09:38:38;;;;;;;20.25;11.98;;;256.30;1561.60;;;;;;5075775;28;20024;-78
2021/03/12 09:41:25;;;;;;;24.00;13.25;;;256.30;1587.20;;;;;;5075408;28;20081;-80
2021/03/12 09:44:17;;;;;;;20.40;12.40;;;256.50;1587.20;;;;;;5075042;28;20491;-81
2021/03/12 09:46:48;;;;;;;24.85;12.48;;;256.70;1536.00;;;;;;5066736;28;20025;-80
2021/03/12 09:49:18;;;;;;;26.77;12.82;;;256.90;1510.40;;;;;;5074601;28;20048;-81
2021/03/12 09:51:47;;;;;;;22.90;12.38;;;256.90;1484.80;;;;;;5073817;28;20048;-80
2021/03/12 09:54:14;;;;;;;19.55;12.45;;;281.60;1510.40;;;;;;5070253;28;20097;-79
2021/03/12 09:56:45;;;;;;;21.65;12.38;;;281.60;1484.80;;;;;;5091620;28;20028;-79
2021/03/12 09:59:11;;;;;;;21.67;13.20;;;281.60;1510.40;;;;;;5092453;28;20443;-79
2021/03/12 10:01:42;;;;;;;23.80;12.63;;;281.70;1536.00;;;;;;5073627;28;20040;-79
2021/03/12 10:04:36;;;;;;;23.90;13.70;;;281.70;1536.00;;;;;;5091957;28;20051;-78
2021/03/12 10:07:05;;;;;;;22.75;13.35;;;281.80;1536.00;;;;;;5077131;28;20024;-78
2021/03/12 10:09:31;;;;;;;27.17;13.02;;;281.90;1510.40;;;;;;5097402;28;20020;-81
2021/03/12 10:11:59;;;;;;;21.88;13.55;;;282.00;1536.00;;;;;;5078698;28;20058;-79
2021/03/12 10:14:35;;;;;;;24.98;15.52;;;282.00;1536.00;;;;;;5079083;28;20055;-84
2021/03/12 10:17:16;;;;;;;19.98;12.00;;;282.00;1536.00;;;;;;5077981;28;20390;-80
2021/03/12 10:19:55;;;;;;;23.17;14.18;;;282.00;1536.00;;;;;;5077727;28;20071;-77
2021/03/12 10:22:25;;;;;;;26.20;14.77;;;282.00;1536.00;;;;;;5078512;28;20035;-81
2021/03/12 10:24:55;;;;;;;27.40;14.55;;;282.00;1561.60;;;;;;5078188;28;20024;-79
2021/03/12 10:27:22;;;;;;;26.02;15.00;;;282.20;1587.20;;;;;;5078667;28;20030;-81
2021/03/12 10:29:49;;;;;;;25.65;15.35;;;282.40;1612.80;;;;;;5077614;28;20024;-78
2021/03/12 10:32:15;;;;;;;20.60;13.57;;;282.50;1612.80;;;;;;5077683;28;20123;-80
2021/03/12 10:34:50;;;;;;;15.10;9.85;;;307.20;1689.60;;;;;;5096454;28;20035;-82
2021/03/12 10:37:17;;;;;;;17.17;10.40;;;307.30;1715.20;;;;;;5058389;28;20036;-82
2021/03/12 10:39:45;;;;;;;14.75;9.45;;;307.30;1715.20;;;;;;5076518;28;20028;-80
2021/03/12 10:42:13;;;;;;;19.23;12.02;;;307.30;1766.40;;;;;;5057920;28;20075;-81
2021/03/12 10:44:53;;;;;;;27.20;15.32;;;307.40;1740.80;;;;;;5058286;28;20024;-81
2021/03/12 10:47:20;;;;;;;20.85;12.82;;;307.30;1817.60;;;;;;5076161;28;20115;-82
2021/03/12 10:49:46;;;;;;;22.60;14.43;;;307.30;1817.60;;;;;;5062976;28;20035;-81
2021/03/12 10:52:22;;;;;;;27.65;15.55;;;307.20;1868.80;;;;;;5077150;28;20048;-78
2021/03/12 10:54:48;;;;;;;23.35;12.98;;;307.20;1843.20;;;;;;5077375;28;20021;-79
2021/03/12 10:57:14;;;;;;;30.10;17.90;;;282.50;1843.20;;;;;;5095536;28;20036;-79
2021/03/12 10:59:57;;;;;;;30.27;18.50;;;282.50;1868.80;;;;;;5095764;28;20097;-78
2021/03/12 11:02:34;;;;;;;28.63;18.30;;;282.50;1920.00;;;;;;5077637;28;20070;-79
2021/03/12 11:04:59;;;;;;;20.15;14.43;;;282.40;1920.00;;;;;;5077644;28;20081;-80
2021/03/12 11:07:25;;;;;;;23.33;14.95;;;282.40;1945.60;;;;;;5077468;28;20024;-79
2021/03/12 11:09:51;;;;;;;29.77;18.63;;;282.40;1971.20;;;;;;5077447;28;20073;-79
2021/03/12 11:12:16;;;;;;;;;;;282.30;1996.80;;;;;;5095901;28;20028;-80
2021/03/12 11:14:42;;;;;;;26.75;17.67;;;282.30;2022.40;;;;;;5076949;28;19904;-78
2021/03/12 11:17:08;;;;;;;24.02;16.85;;;282.30;2022.40;;;;;;5076768;28;20024;-80
2021/03/12 11:19:33;;;;;;;;;;;282.20;2022.40;;;;;;5077656;28;20024;-79
2021/03/12 11:21:59;;;;;;;27.52;15.10;;;282.30;2048.00;;;;;;5095026;28;20255;-78
2021/03/12 11:24:25;;;;;;;;;;;282.20;2048.00;;;;;;5077276;28;20040;-83
2021/03/12 11:26:50;;;;;;;37.40;21.00;;;282.20;2073.60;;;;;;5095752;28;19908;-82
2021/03/12 11:29:16;;;;;;;;;;;282.20;2073.60;;;;;;5095323;28;20031;-81
2021/03/12 11:31:42;;;;;;;26.80;16.83;;;282.20;2073.60;;;;;;5095007;28;19908;-83
2021/03/12 11:34:08;;;;;;;27.90;17.55;;;282.10;2099.20;;;;;;5076271;28;20024;-77
2021/03/12 11:36:34;;;;;;;26.55;15.35;;;282.10;2099.20;;;;;;5073257;28;20447;-78
2021/03/12 11:39:00;;;;;;;29.67;17.90;;;282.10;2124.80;;;;;;5076817;28;20120;-82
2021/03/12 11:41:25;;;;;;;;;;;282.10;2150.40;;;;;;5077244;28;20067;-80
2021/03/12 11:43:51;;;;;;;37.63;22.45;;;282.10;2176.00;;;;;;5076380;28;19908;-79
2021/03/12 11:46:16;;;;;;;;;;;282.10;2176.00;;;;;;5095426;28;20381;-80
2021/03/12 11:48:42;;;;;;;23.85;15.93;;;282.10;2150.40;;;;;;5077089;28;19904;-83
2021/03/12 11:51:08;;;;;;;;;;;282.00;2150.40;;;;;;5077774;28;20383;-83
2021/03/12 11:53:35;;;;;;;24.73;17.52;;;282.00;2150.40;;;;;;5077214;28;20002;-90
2021/03/12 11:56:00;;;;;;;25.55;15.80;;;281.90;2176.00;;;;;;5077688;28;20490;-85
2021/03/12 11:58:26;;;;;;;24.52;16.88;;;281.90;2201.60;;;;;;5076767;28;20028;-84
2021/03/12 12:00:52;;;;;;;;;;;281.90;2201.60;;;;;;5076722;28;20056;-83
2021/03/12 12:03:18;;;;;;;24.42;14.80;;;281.90;2227.20;;;;;;5074080;28;20395;-86
2021/03/12 12:05:45;;;;;;;;;;;281.80;2252.80;;;;;;5076826;28;20027;-82
2021/03/12 12:08:11;;;;;;;37.20;18.60;;;282.20;2278.40;;;;;;5094766;28;19911;-93
2021/03/12 12:10:37;;;;;;;29.27;20.75;;;281.70;2278.40;;;;;;5095175;28;20032;-90
2021/03/12 12:13:04;;;;;;;22.58;15.45;;;281.70;2278.40;;;;;;5095288;28;20032;-91
2021/03/12 12:15:30;;;;;;;18.48;11.13;;;281.80;2278.40;;;;;;5077069;28;20059;-87
2021/03/12 12:18:00;;;;;;;15.73;10.27;;;281.70;2278.40;;;;;;5095149;28;20016;-86
2021/03/12 12:20:27;;;;;;;10.48;6.88;;;281.60;2278.40;;;;;;5076936;28;20024;-85